Flight Track Log - Related Links

Times and Time Zones

All times are in EDT time to prevent confusion due to time zone crossing. See the KAL1114 flight status page for this flight to view local times or setup timezone preferences in your user account.

Time Position Orientation Groundspeed Altitude Reporting Facility
EDT Latitude Longitude Course Direction KTS MPH feet Rate Location/Type
Tue 01:51:00 AM 35.2715 128.8582 325° Northwest  Level Estimated
Tue 01:52:00 AM 35.3635 128.7779 325° Northwest  Level Estimated
Tue 01:53:00 AM 35.4554 128.6975 325° Northwest  Level Estimated
Tue 01:54:00 AM 35.5472 128.6169 324° Northwest  Level Estimated
Tue 01:55:00 AM 35.6390 128.5361 324° Northwest  Level Estimated
Tue 01:56:00 AM 35.7308 128.4551 324° Northwest  Level Estimated
Tue 01:57:00 AM 35.8224 128.3739 324° Northwest  Level Estimated
Tue 01:58:00 AM 35.9141 128.2926 324° Northwest  Level Estimated
Tue 01:59:00 AM 36.0056 128.2110 324° Northwest  Level Estimated
Tue 02:00:00 AM 36.0971 128.1293 324° Northwest  Level Estimated
Tue 02:01:00 AM 36.1886 128.0474 324° Northwest  Level Estimated
Tue 02:02:00 AM 36.2800 127.9653 324° Northwest  Level Estimated
Tue 02:03:00 AM 36.3714 127.8829 324° Northwest  Level Estimated
Tue 02:04:00 AM 36.4219 127.8373 324° Northwest  Level Estimated
Tue 02:05:00 AM 36.4724 127.7917 324° Northwest  Level Estimated
Tue 02:06:00 AM 36.5228 127.7459 324° Northwest  Level Estimated
Tue 02:07:00 AM 36.5733 127.7001 324° Northwest  Level Estimated
Tue 02:08:00 AM 36.6237 127.6543 324° Northwest  Level Estimated
Tue 02:08:02 AM 37.0710 127.5130 324° Northwest 368 423 14,200  Level FlightAware ADS-B
Tue 02:08:52 AM 37.1270 127.4260 309° West 348 400 11,100 -2,533 Descending FlightAware ADS-B
Tue 02:09:32 AM 37.1650 127.3650 308° West 319 367 10,400 -943 Descending FlightAware ADS-B
Tue 02:10:02 AM 37.1930 127.3220 309° West 295 339 10,000 -982 Descending FlightAware ADS-B
Tue 02:10:27 AM 37.2130 127.2900 308° West 289 333 9,500 -1,200 Descending FlightAware ADS-B
Tue 02:10:57 AM 37.2380 127.2500 308° West 274 315 8,900 -1,309 Descending FlightAware ADS-B
Tue 02:11:22 AM 37.2580 127.2190 309° West 271 312 8,300 -1,500 Descending FlightAware ADS-B
Tue 02:11:37 AM 37.2700 127.2000 308° West 270 311 7,900 -1,333 Descending FlightAware ADS-B
Tue 02:12:07 AM 37.2930 127.1630 308° West 252 290 7,300 -1,091 Descending FlightAware ADS-B
Tue 02:12:32 AM 37.3100 127.1360 308° West 242 278 6,900 -750 Descending FlightAware ADS-B
Tue 02:12:47 AM 37.3200 127.1200 308° West 236 272 6,800 -400 Descending FlightAware ADS-B
Tue 02:13:17 AM 37.3410 127.0860 308° West 237 273 6,600 -764 Descending FlightAware ADS-B
Tue 02:13:42 AM 37.3570 127.0600 308° West 219 252 6,100 -1,333 Descending FlightAware ADS-B
Tue 02:14:02 AM 37.3700 127.0410 311° West 215 247 5,600 -1,309 Descending FlightAware ADS-B
Tue 02:14:37 AM 37.3900 127.0080 307° West 189 217 4,900 -1,292 Descending FlightAware ADS-B
Tue 02:15:07 AM 37.4050 126.9850 309° West 174 200 4,200 -1,500 Descending FlightAware ADS-B
Tue 02:15:37 AM 37.4240 126.9620 316° Northwest 162 186 3,400 -1,309 Descending FlightAware ADS-B
Tue 02:16:02 AM 37.4360 126.9480 317° Northwest 159 183 3,000 -982 Descending FlightAware ADS-B
Tue 02:16:32 AM 37.4520 126.9270 314° West 143 165 2,500 -900 Descending FlightAware ADS-B
Tue 02:17:02 AM 37.4660 126.9090 314° West 141 162 2,100 -764 Descending FlightAware ADS-B
Tue 02:17:27 AM 37.4780 126.8940 315° West 136 157 1,800 -764 Descending FlightAware ADS-B
Tue 02:17:57 AM 37.4920 126.8770 316° Northwest 139 160 1,400 -764 Descending FlightAware ADS-B
Tue 02:18:22 AM 37.5030 126.8630 315° West 133 153 1,100 -600 Descending FlightAware ADS-B
Tue 02:18:37 AM 37.5080 126.8570 316° Northwest 128 147 1,000 -150 Descending FlightAware ADS-B
Tue 02:19:02 AM 37.5170 126.8440 311° West 128 147 1,000  Level FlightAware ADS-B
Tue 02:21:00 AM 37.5583 126.7906 314° West  Level Estimated
Tue 02:22:00 AM 37.5583 126.7906 288° West  Level Estimated
Tue 02:23:00 AM 37.5583 126.7906 288° West  Level Estimated
Tue 02:24:00 AM 37.5583 126.7906 288° West  Level Estimated
Tue 02:25:00 AM 37.5583 126.7906 288° West  Level Estimated
Tue 02:26:00 AM 37.5583 126.7906 288° West  Level Estimated
Tue 02:27:00 AM 37.5583 126.7906 288° West  Level Estimated
Tue 02:28:00 AM 37.5583 126.7906 288° West  Level Estimated
Tue 02:29:00 AM 37.5583 126.7906 288° West  Level Estimated
Tue 02:30:00 AM 37.5583 126.7906 288° West  Level Estimated
Tue 02:31:00 AM 37.5583 126.7906 288° West  Level Estimated
Tue 02:32:00 AM 37.5583 126.7906 288° West  Level Estimated
Tue 02:33:00 AM 37.5583 126.7906 288° West  Level Estimated
Tue 02:34:00 AM 37.5583 126.7906 288° West  Level Estimated

Login

Don't have an account? Register now (free) for customized features, flight alerts, and more!